Аэропорт: Ровно. Ровно

ICAO: UKLR

METAR:
2018/07/16 15:00
UKLR 161500Z 33002MPS 290V360 CAVOK 24/13 Q1006 NOSIG
METAR:
2014/02/13 15:15
TAF TAF UKLR 131410Z 1315/1524 27003MPS 1500 BR OVC004 
      TEMPO 1315/1324 0500 -RA FG OVC002 TX01/1315Z TN00/1321Z